Time;durP1;ratioP1;P1;durP2;ratioP2;P2;SDS_P1;SDS_P2;PMS_P1;PMS_P2;Temp;Humidity;BMP_temperature;BMP_pressure;BME280_temperature;BME280_humidity;BME280_pressure;Samples;Min_cycle;Max_cycle;Signal;HPM_P1;HPM_P2
2023/05/01 00:00:36;;;;;;;7.33;5.30;;;15.60;69.20;;;;;;4976681;28;20465;-71
2023/05/01 00:03:03;;;;;;;6.97;5.37;;;15.60;69.30;;;;;;4973545;28;20506;-71
2023/05/01 00:05:31;;;;;;;5.93;5.43;;;15.60;69.40;;;;;;4972599;28;20474;-71
2023/05/01 00:07:58;;;;;;;6.10;5.50;;;15.60;69.50;;;;;;4973462;28;20535;-71
2023/05/01 00:10:26;;;;;;;6.20;5.10;;;15.60;69.60;;;;;;4973571;28;20456;-72
2023/05/01 00:12:53;;;;;;;6.07;5.57;;;15.60;69.80;;;;;;4972933;28;20464;-71
2023/05/01 00:15:20;;;;;;;9.63;5.13;;;15.50;69.80;;;;;;4976563;28;20462;-72
2023/05/01 00:17:47;;;;;;;7.27;5.63;;;15.50;69.90;;;;;;4969239;28;20487;-71
2023/05/01 00:20:15;;;;;;;5.87;5.37;;;15.50;69.90;;;;;;4980800;28;20470;-72
2023/05/01 00:22:41;;;;;;;5.60;5.10;;;15.50;69.90;;;;;;4980578;28;20469;-72
2023/05/01 00:25:09;;;;;;;6.17;5.57;;;15.50;69.90;;;;;;4983367;28;20462;-72
2023/05/01 00:27:37;;;;;;;5.63;5.07;;;15.50;70.00;;;;;;4977813;28;20451;-71
2023/05/01 00:30:06;;;;;;;6.23;5.37;;;15.50;70.00;;;;;;4984082;28;21144;-71
2023/05/01 00:32:34;;;;;;;6.47;5.87;;;15.50;69.90;;;;;;4976025;28;20467;-72
2023/05/01 00:35:01;;;;;;;5.80;5.20;;;15.50;69.90;;;;;;4982315;28;20460;-72
2023/05/01 00:37:27;;;;;;;6.00;5.50;;;15.50;70.00;;;;;;4992276;28;20510;-72
2023/05/01 00:39:54;;;;;;;5.93;5.33;;;15.50;69.90;;;;;;4975289;28;20899;-71
2023/05/01 00:42:21;;;;;;;5.03;4.60;;;15.50;69.80;;;;;;4971953;28;20492;-71
2023/05/01 00:44:49;;;;;;;5.90;5.40;;;15.50;69.80;;;;;;4981252;28;20494;-71
2023/05/01 00:47:16;;;;;;;6.20;5.10;;;15.50;69.90;;;;;;4988158;28;20459;-71
2023/05/01 00:49:44;;;;;;;6.97;5.80;;;15.50;69.90;;;;;;4973531;28;20462;-71
2023/05/01 00:52:12;;;;;;;6.13;5.53;;;15.50;69.90;;;;;;4972098;28;20588;-72
2023/05/01 00:54:39;;;;;;;6.07;5.43;;;15.40;69.80;;;;;;4972190;28;20456;-71
2023/05/01 00:57:07;;;;;;;5.77;5.27;;;15.40;69.90;;;;;;4973566;28;20456;-72
2023/05/01 00:59:34;;;;;;;8.90;6.50;;;15.40;69.90;;;;;;4979821;28;20805;-71
2023/05/01 01:02:02;;;;;;;6.07;5.50;;;15.40;69.80;;;;;;4966523;28;20558;-71
2023/05/01 01:04:31;;;;;;;6.33;5.73;;;15.40;69.80;;;;;;4971304;28;20506;-72
2023/05/01 01:07:08;;;;;;;6.43;5.50;;;15.40;69.90;;;;;;4971781;28;20455;-72
2023/05/01 01:09:44;;;;;;;6.50;5.80;;;15.50;70.00;;;;;;4962023;28;20542;-72
2023/05/01 01:12:20;;;;;;;6.17;5.57;;;15.40;70.00;;;;;;4971252;28;21072;-72
2023/05/01 01:14:59;;;;;;;6.33;5.20;;;15.40;70.20;;;;;;4972011;28;20455;-72
2023/05/01 01:17:32;;;;;;;6.13;5.53;;;15.40;70.50;;;;;;4969589;28;20495;-71
2023/05/01 01:20:19;;;;;;;6.10;5.50;;;15.40;70.50;;;;;;4971222;28;20852;-72
2023/05/01 01:22:51;;;;;;;5.80;4.97;;;15.40;70.50;;;;;;4987405;28;20561;-72
2023/05/01 01:25:52;;;;;;;6.80;6.13;;;15.40;70.20;;;;;;4966679;28;20455;-72
2023/05/01 01:28:42;;;;;;;6.87;5.77;;;15.40;70.40;;;;;;4969697;28;20464;-72
2023/05/01 01:31:17;;;;;;;6.27;5.67;;;15.50;70.60;;;;;;4976050;28;20474;-71
2023/05/01 01:34:04;;;;;;;6.70;5.77;;;15.40;70.40;;;;;;4983287;28;20463;-71
2023/05/01 01:36:49;;;;;;;5.97;5.47;;;15.50;70.60;;;;;;4990421;28;20458;-71
2023/05/01 01:39:28;;;;;;;5.90;5.30;;;15.50;70.20;;;;;;4976061;28;20483;-71
2023/05/01 01:41:58;;;;;;;6.37;5.77;;;15.50;69.80;;;;;;4983006;28;20541;-71
2023/05/01 01:44:33;;;;;;;6.83;5.40;;;15.50;69.70;;;;;;4976581;28;20470;-71
2023/05/01 01:47:03;;;;;;;7.07;5.53;;;15.50;71.00;;;;;;4956713;28;20463;-71
2023/05/01 01:49:32;;;;;;;6.40;5.77;;;15.50;70.20;;;;;;4979132;28;20844;-71
2023/05/01 01:52:02;;;;;;;5.93;5.33;;;15.50;70.00;;;;;;4982416;28;20455;-72
2023/05/01 01:54:34;;;;;;;9.57;5.80;;;15.60;70.10;;;;;;4981042;28;20463;-71
2023/05/01 01:57:03;;;;;;;6.97;6.30;;;15.60;70.10;;;;;;4970394;28;20476;-72
2023/05/01 01:59:33;;;;;;;6.30;5.70;;;15.60;70.00;;;;;;4974313;28;20491;-72
2023/05/01 02:02:02;;;;;;;6.13;5.53;;;15.60;70.00;;;;;;4982578;28;20467;-72
2023/05/01 02:04:32;;;;;;;5.47;4.97;;;15.60;70.10;;;;;;4962026;28;20819;-71
2023/05/01 02:07:01;;;;;;;5.73;5.23;;;15.60;69.90;;;;;;4971137;28;20900;-70
2023/05/01 02:09:29;;;;;;;6.20;5.60;;;15.70;69.70;;;;;;4971469;28;20448;-72
2023/05/01 02:11:57;;;;;;;7.47;5.43;;;15.70;69.30;;;;;;4971489;28;20464;-72
2023/05/01 02:14:26;;;;;;;8.70;5.57;;;15.70;69.40;;;;;;4970899;28;20827;-72
2023/05/01 02:16:55;;;;;;;6.47;5.47;;;15.80;69.60;;;;;;4971976;28;20459;-72
2023/05/01 02:19:23;;;;;;;6.47;5.87;;;15.80;69.40;;;;;;4972831;28;20492;-72
2023/05/01 02:21:53;;;;;;;6.77;5.97;;;15.80;68.90;;;;;;4974743;28;20960;-71
2023/05/01 02:24:23;;;;;;;6.20;5.03;;;15.80;68.30;;;;;;4970846;28;20460;-72
2023/05/01 02:26:55;;;;;;;5.60;5.10;;;15.80;68.10;;;;;;4971207;28;20471;-71
2023/05/01 02:29:21;;;;;;;6.27;5.10;;;15.90;67.90;;;;;;4967520;28;20447;-72
2023/05/01 02:31:48;;;;;;;5.63;5.17;;;15.90;67.90;;;;;;4981083;28;20559;-71
2023/05/01 02:34:15;;;;;;;5.50;5.00;;;16.00;67.40;;;;;;4989278;28;20455;-72
2023/05/01 02:36:42;;;;;;;6.07;5.43;;;16.00;67.20;;;;;;4984688;28;20528;-72
2023/05/01 02:39:10;;;;;;;7.60;5.47;;;16.00;67.30;;;;;;4977802;28;20519;-72
2023/05/01 02:41:39;;;;;;;5.67;5.13;;;16.00;67.40;;;;;;4981346;28;20459;-72
2023/05/01 02:44:08;;;;;;;5.73;5.30;;;16.00;67.10;;;;;;4971383;28;20822;-72
2023/05/01 02:46:37;;;;;;;5.70;5.20;;;16.00;67.60;;;;;;4973821;28;20822;-72
2023/05/01 02:49:05;;;;;;;5.87;5.27;;;16.00;67.90;;;;;;4989493;28;20458;-72
2023/05/01 02:51:34;;;;;;;5.77;5.00;;;16.00;67.90;;;;;;4981103;28;20451;-72
2023/05/01 02:54:02;;;;;;;5.63;5.13;;;16.00;68.20;;;;;;4980260;28;20514;-71
2023/05/01 02:56:30;;;;;;;6.00;5.50;;;16.00;68.40;;;;;;4972900;28;20472;-72
2023/05/01 02:58:57;;;;;;;5.80;5.30;;;16.00;68.10;;;;;;4966755;28;20480;-72
2023/05/01 03:01:24;;;;;;;6.40;5.80;;;16.00;68.00;;;;;;4959215;28;20463;-71
2023/05/01 03:03:51;;;;;;;6.20;5.67;;;16.00;68.20;;;;;;4979147;28;20470;-71
2023/05/01 03:06:18;;;;;;;6.20;5.47;;;15.90;68.00;;;;;;4977132;28;20506;-71
2023/05/01 03:08:46;;;;;;;6.10;5.60;;;15.90;68.20;;;;;;4973398;28;20498;-71
2023/05/01 03:11:13;;;;;;;6.20;5.30;;;15.90;68.30;;;;;;4975322;28;20479;-71
2023/05/01 03:13:42;;;;;;;6.30;5.70;;;15.90;68.30;;;;;;4974355;28;20983;-72
2023/05/01 03:16:09;;;;;;;6.20;5.40;;;15.80;68.20;;;;;;4989263;28;20463;-72
2023/05/01 03:18:36;;;;;;;6.23;5.67;;;15.90;68.30;;;;;;4976295;28;20490;-71
2023/05/01 03:21:02;;;;;;;6.30;5.70;;;15.80;68.30;;;;;;4974349;28;20487;-71
2023/05/01 03:23:29;;;;;;;6.17;5.57;;;15.80;68.50;;;;;;4974202;28;20475;-71
2023/05/01 03:25:56;;;;;;;6.40;5.80;;;15.80;68.20;;;;;;4975922;28;20469;-72
2023/05/01 03:28:24;;;;;;;6.90;6.30;;;15.70;68.10;;;;;;4978416;28;20488;-71
2023/05/01 03:30:53;;;;;;;5.87;5.37;;;15.70;68.10;;;;;;4983132;28;20485;-71
2023/05/01 03:33:20;;;;;;;6.27;5.73;;;15.70;68.20;;;;;;4963144;28;20549;-71
2023/05/01 03:35:47;;;;;;;6.27;5.77;;;15.70;68.40;;;;;;4975770;28;20452;-71
2023/05/01 03:38:13;;;;;;;5.90;5.20;;;15.60;68.50;;;;;;4976469;28;20489;-71
2023/05/01 03:40:40;;;;;;;6.30;5.60;;;15.60;68.30;;;;;;4992494;28;20448;-71
2023/05/01 03:43:07;;;;;;;5.70;5.20;;;15.60;68.80;;;;;;4976803;28;20458;-72
2023/05/01 03:45:34;;;;;;;5.93;5.30;;;15.60;68.70;;;;;;4979002;28;20486;-72
2023/05/01 03:48:02;;;;;;;5.87;5.23;;;15.50;68.50;;;;;;4990466;28;21071;-72
2023/05/01 03:50:29;;;;;;;5.73;5.13;;;15.60;69.30;;;;;;4982980;28;20467;-71
2023/05/01 03:52:56;;;;;;;6.03;5.43;;;15.60;68.10;;;;;;4980083;28;20456;-70
2023/05/01 03:55:23;;;;;;;6.80;5.10;;;15.60;68.10;;;;;;4977442;28;20495;-72
2023/05/01 03:57:51;;;;;;;6.43;5.50;;;15.60;68.00;;;;;;4975503;28;20467;-72
2023/05/01 04:00:18;;;;;;;6.70;5.23;;;15.60;68.00;;;;;;4985210;28;20474;-72
2023/05/01 04:02:46;;;;;;;5.23;4.73;;;15.60;68.00;;;;;;4973178;28;20463;-71
2023/05/01 04:05:14;;;;;;;7.03;5.77;;;15.70;68.20;;;;;;4978920;28;20521;-72
2023/05/01 04:07:41;;;;;;;5.20;4.80;;;15.60;68.10;;;;;;4985765;28;20458;-72
2023/05/01 04:10:09;;;;;;;5.60;5.10;;;15.60;68.20;;;;;;4983778;28;20443;-70
2023/05/01 04:12:36;;;;;;;5.90;5.30;;;15.60;68.40;;;;;;4968601;28;20452;-72
2023/05/01 04:15:03;;;;;;;5.77;5.27;;;15.70;68.60;;;;;;4956763;28;20912;-72
2023/05/01 04:17:32;;;;;;;7.70;5.50;;;15.60;68.30;;;;;;4973904;28;20851;-72
2023/05/01 04:19:59;;;;;;;4.93;4.53;;;15.60;68.60;;;;;;4972684;28;20484;-71
2023/05/01 04:22:28;;;;;;;5.17;4.70;;;15.60;68.60;;;;;;4988408;28;20459;-69
2023/05/01 04:24:55;;;;;;;6.60;5.07;;;15.60;68.50;;;;;;4979238;28;21113;-69
2023/05/01 04:27:22;;;;;;;5.13;4.63;;;15.60;68.70;;;;;;4982249;28;20483;-70
2023/05/01 04:29:49;;;;;;;5.57;4.90;;;15.60;68.60;;;;;;4986146;28;20448;-69
2023/05/01 04:32:17;;;;;;;5.23;4.70;;;15.60;68.50;;;;;;4972965;28;20487;-69
2023/05/01 04:34:44;;;;;;;5.43;4.93;;;15.70;68.50;;;;;;4973681;28;20975;-70
2023/05/01 04:37:11;;;;;;;5.50;5.00;;;15.60;68.10;;;;;;4988285;28;20515;-70
2023/05/01 04:39:40;;;;;;;5.17;4.77;;;15.70;68.20;;;;;;4973874;28;20980;-72
2023/05/01 04:42:06;;;;;;;5.47;4.97;;;15.70;68.70;;;;;;4989924;28;20813;-71
2023/05/01 04:44:35;;;;;;;5.87;4.80;;;15.70;68.80;;;;;;4987264;28;20543;-72
2023/05/01 04:47:02;;;;;;;5.17;4.67;;;15.60;68.50;;;;;;4988825;28;20538;-72
2023/05/01 04:49:29;;;;;;;5.93;4.50;;;15.60;68.10;;;;;;4983814;28;20526;-73
2023/05/01 04:51:57;;;;;;;5.17;4.43;;;15.70;68.00;;;;;;4973252;28;20522;-72
2023/05/01 04:54:24;;;;;;;5.00;4.60;;;15.60;68.00;;;;;;4985905;28;20459;-73
2023/05/01 04:56:52;;;;;;;6.37;4.73;;;15.70;68.20;;;;;;4976312;28;20483;-71
2023/05/01 04:59:19;;;;;;;4.77;4.37;;;15.70;68.20;;;;;;4973392;28;20498;-71
2023/05/01 05:01:46;;;;;;;5.67;5.10;;;15.70;68.20;;;;;;4976654;28;20467;-72
2023/05/01 05:04:13;;;;;;;5.77;4.73;;;15.70;68.10;;;;;;4979531;28;20451;-72
2023/05/01 05:06:40;;;;;;;4.67;4.27;;;15.70;67.90;;;;;;4970544;28;20453;-72
2023/05/01 05:09:07;;;;;;;5.10;4.60;;;15.70;67.50;;;;;;4977295;28;20561;-72
2023/05/01 05:11:33;;;;;;;4.77;4.37;;;15.80;68.20;;;;;;4980291;28;20503;-72
2023/05/01 05:14:02;;;;;;;6.00;5.33;;;15.80;68.10;;;;;;4974284;28;20472;-72
2023/05/01 05:16:29;;;;;;;5.10;4.60;;;15.80;68.20;;;;;;4973422;28;20464;-71
2023/05/01 05:18:57;;;;;;;5.93;5.40;;;15.80;68.30;;;;;;4975837;28;20519;-72
2023/05/01 05:21:24;;;;;;;5.10;4.70;;;15.80;67.90;;;;;;4964362;28;20444;-72
2023/05/01 05:23:50;;;;;;;4.97;4.57;;;15.90;67.80;;;;;;4979827;28;20468;-72
2023/05/01 05:26:18;;;;;;;4.83;4.10;;;15.90;68.10;;;;;;4979910;28;20464;-72
2023/05/01 05:28:45;;;;;;;4.57;4.17;;;16.00;68.00;;;;;;4971933;28;20456;-72
2023/05/01 05:31:13;;;;;;;4.93;4.43;;;16.00;67.40;;;;;;4974686;28;20454;-72
2023/05/01 05:33:40;;;;;;;4.90;4.40;;;16.10;67.70;;;;;;4974765;28;20531;-72
2023/05/01 05:36:07;;;;;;;4.60;4.20;;;16.10;67.60;;;;;;4972774;28;21067;-72
2023/05/01 05:38:33;;;;;;;5.20;4.37;;;16.20;67.40;;;;;;4972448;28;20464;-72
2023/05/01 05:41:00;;;;;;;4.60;4.20;;;16.20;67.60;;;;;;4989415;28;20482;-72
2023/05/01 05:43:27;;;;;;;4.97;4.20;;;16.30;67.70;;;;;;4964378;28;20462;-71
2023/05/01 05:45:57;;;;;;;5.03;4.60;;;16.30;67.40;;;;;;4980814;28;20939;-71
2023/05/01 05:48:25;;;;;;;5.13;4.53;;;16.40;67.20;;;;;;4973021;28;20452;-71
2023/05/01 05:50:52;;;;;;;4.63;4.23;;;16.40;67.10;;;;;;4972849;28;20488;-71
2023/05/01 05:53:20;;;;;;;4.47;4.07;;;16.50;67.40;;;;;;4971816;28;20547;-72
2023/05/01 05:55:47;;;;;;;4.43;4.13;;;16.50;67.70;;;;;;4977448;28;20967;-72
2023/05/01 05:58:18;;;;;;;4.47;4.10;;;16.60;67.80;;;;;;4975280;28;20499;-72
2023/05/01 06:00:46;;;;;;;4.43;4.03;;;16.60;67.50;;;;;;4973592;28;20486;-72
2023/05/01 06:03:14;;;;;;;4.27;3.87;;;16.70;67.40;;;;;;4978774;28;20474;-72
2023/05/01 06:05:43;;;;;;;4.67;3.70;;;16.70;67.30;;;;;;4971118;28;20451;-71
2023/05/01 06:08:10;;;;;;;4.93;4.53;;;16.70;67.70;;;;;;4982291;28;21003;-72
2023/05/01 06:10:38;;;;;;;4.63;4.13;;;16.80;66.80;;;;;;4976272;28;20848;-72
2023/05/01 06:13:07;;;;;;;4.33;3.87;;;16.80;66.90;;;;;;4976208;28;20451;-72
2023/05/01 06:15:34;;;;;;;4.43;4.03;;;16.80;66.70;;;;;;4975910;28;20471;-72
2023/05/01 06:18:01;;;;;;;4.33;3.93;;;16.80;66.20;;;;;;4972892;28;20458;-72
2023/05/01 06:20:28;;;;;;;3.97;3.67;;;16.90;66.30;;;;;;4983319;28;20997;-72
2023/05/01 06:22:56;;;;;;;5.70;4.10;;;16.90;66.30;;;;;;4983261;28;20466;-72
2023/05/01 06:25:23;;;;;;;4.33;3.80;;;16.90;66.10;;;;;;4988770;28;20477;-72
2023/05/01 06:27:51;;;;;;;4.07;3.67;;;16.90;65.80;;;;;;4983638;28;20564;-72
2023/05/01 06:30:18;;;;;;;4.50;3.77;;;17.00;65.40;;;;;;4988351;28;20447;-71
2023/05/01 06:32:45;;;;;;;4.17;3.77;;;17.00;65.70;;;;;;4979537;28;20555;-72
2023/05/01 06:35:12;;;;;;;4.60;3.90;;;17.00;65.80;;;;;;4969436;28;20460;-72
2023/05/01 06:37:39;;;;;;;4.00;3.70;;;17.00;65.30;;;;;;4972859;28;20497;-72
2023/05/01 06:40:10;;;;;;;4.20;3.80;;;17.00;65.40;;;;;;4970160;28;20486;-72
2023/05/01 06:42:37;;;;;;;4.00;3.70;;;17.00;65.00;;;;;;4972435;28;20463;-71
2023/05/01 06:45:04;;;;;;;5.30;4.33;;;17.00;64.70;;;;;;4977026;28;20474;-71
2023/05/01 06:47:31;;;;;;;4.43;3.90;;;17.00;64.80;;;;;;4984846;28;20461;-72
2023/05/01 06:49:58;;;;;;;3.70;3.40;;;17.00;64.80;;;;;;4977930;28;20563;-72
2023/05/01 06:52:25;;;;;;;3.80;3.50;;;17.00;64.50;;;;;;4992170;28;20455;-72
2023/05/01 06:54:52;;;;;;;4.67;4.00;;;17.10;64.70;;;;;;4972565;28;20465;-72
2023/05/01 06:57:20;;;;;;;4.10;3.80;;;17.10;64.70;;;;;;4972144;28;20447;-72
2023/05/01 06:59:47;;;;;;;3.90;3.60;;;17.10;64.40;;;;;;4969947;28;21053;-72
2023/05/01 07:02:13;;;;;;;3.60;3.30;;;17.10;64.40;;;;;;4974581;28;20546;-72
2023/05/01 07:04:43;;;;;;;4.17;3.77;;;17.20;64.50;;;;;;4975250;28;20485;-72
2023/05/01 07:07:10;;;;;;;4.67;3.80;;;17.20;64.70;;;;;;4974337;28;20452;-71
2023/05/01 07:09:37;;;;;;;4.33;3.93;;;17.20;64.50;;;;;;4977581;28;20440;-71
2023/05/01 07:12:05;;;;;;;6.07;3.90;;;17.30;65.10;;;;;;4974165;28;20502;-72
2023/05/01 07:14:34;;;;;;;4.50;4.07;;;17.30;65.00;;;;;;4972701;28;20463;-71
2023/05/01 07:17:01;;;;;;;4.53;4.13;;;17.30;65.10;;;;;;4974401;28;20448;-71
2023/05/01 07:19:28;;;;;;;4.93;4.00;;;17.30;64.90;;;;;;4974121;28;20570;-71
2023/05/01 07:21:55;;;;;;;5.37;3.73;;;17.40;65.30;;;;;;4976130;28;20507;-71
2023/05/01 07:24:22;;;;;;;4.47;4.07;;;17.40;65.70;;;;;;4978566;28;20555;-71
2023/05/01 07:26:50;;;;;;;3.90;3.60;;;17.40;64.70;;;;;;4991162;28;20450;-72
2023/05/01 07:29:17;;;;;;;4.93;3.77;;;17.40;64.70;;;;;;4985607;28;20508;-72
2023/05/01 07:31:47;;;;;;;4.17;3.77;;;17.50;64.70;;;;;;4976530;28;20475;-71
2023/05/01 07:34:14;;;;;;;5.50;4.50;;;17.50;64.40;;;;;;4967237;28;20456;-72
2023/05/01 07:36:41;;;;;;;4.80;4.37;;;17.50;63.70;;;;;;4978575;28;20470;-71
2023/05/01 07:39:08;;;;;;;4.60;4.20;;;17.50;63.80;;;;;;4984772;28;20559;-71
2023/05/01 07:41:35;;;;;;;3.97;3.67;;;17.60;63.70;;;;;;4979683;28;20447;-72
2023/05/01 07:44:02;;;;;;;5.57;3.80;;;17.60;63.50;;;;;;4978816;28;20454;-71
2023/05/01 07:46:29;;;;;;;5.37;4.03;;;17.60;63.60;;;;;;4984826;28;20882;-71
2023/05/01 07:48:57;;;;;;;5.03;3.97;;;17.70;63.70;;;;;;4975181;28;20564;-72
2023/05/01 07:51:24;;;;;;;4.03;3.73;;;17.70;63.70;;;;;;4972082;28;20474;-71
2023/05/01 07:53:51;;;;;;;4.60;4.20;;;17.70;63.80;;;;;;4974379;28;21178;-71
2023/05/01 07:56:18;;;;;;;4.47;4.07;;;17.80;63.60;;;;;;4974575;28;20483;-71
2023/05/01 07:58:45;;;;;;;4.27;3.90;;;17.80;63.30;;;;;;4975738;28;20522;-71
2023/05/01 08:01:12;;;;;;;4.00;3.70;;;17.90;63.60;;;;;;4985034;28;20228;-72
2023/05/01 08:03:39;;;;;;;4.67;4.27;;;17.90;63.60;;;;;;4979643;28;20476;-72
2023/05/01 08:06:07;;;;;;;4.27;3.90;;;18.00;63.70;;;;;;4973953;28;20566;-72
2023/05/01 08:08:34;;;;;;;4.33;3.93;;;18.10;63.60;;;;;;4981499;28;20502;-71
2023/05/01 08:11:01;;;;;;;4.67;4.13;;;18.10;63.40;;;;;;4973561;28;20483;-71
2023/05/01 08:13:28;;;;;;;5.23;4.73;;;18.20;63.80;;;;;;4982021;28;20471;-72
2023/05/01 08:15:57;;;;;;;4.53;4.13;;;18.20;62.80;;;;;;4987802;28;20456;-72
2023/05/01 08:18:24;;;;;;;4.20;3.90;;;18.20;62.70;;;;;;4981346;28;20462;-72
2023/05/01 08:21:04;;;;;;;4.00;3.70;;;18.30;62.90;;;;;;4973807;28;20562;-72
2023/05/01 08:23:33;;;;;;;5.23;4.17;;;18.40;62.80;;;;;;4990954;28;20584;-72
2023/05/01 08:26:00;;;;;;;5.77;5.00;;;18.40;62.80;;;;;;4982937;28;20478;-71
2023/05/01 08:28:28;;;;;;;4.83;4.43;;;18.50;62.80;;;;;;4984554;28;20461;-72
2023/05/01 08:30:55;;;;;;;4.77;4.27;;;18.50;61.90;;;;;;4979342;28;20542;-71
2023/05/01 08:33:23;;;;;;;5.17;4.47;;;18.50;61.70;;;;;;4976645;28;20546;-72
2023/05/01 08:35:50;;;;;;;5.60;5.10;;;18.50;61.50;;;;;;4984246;28;20446;-69
2023/05/01 08:38:17;;;;;;;5.07;4.57;;;18.60;61.50;;;;;;4977002;28;20494;-70
2023/05/01 08:41:00;;;;;;;4.77;4.37;;;18.60;61.70;;;;;;4974604;28;20553;-72
2023/05/01 08:43:27;;;;;;;5.17;3.90;;;18.60;61.30;;;;;;4969187;28;21077;-72
2023/05/01 08:45:58;;;;;;;5.17;4.53;;;18.60;61.40;;;;;;4984369;28;20197;-71
2023/05/01 08:48:27;;;;;;;5.77;4.87;;;18.70;61.00;;;;;;4973109;28;20464;-72
2023/05/01 08:51:01;;;;;;;4.90;4.40;;;18.70;61.10;;;;;;4963578;28;20854;-71
2023/05/01 08:53:31;;;;;;;5.33;4.83;;;18.70;61.30;;;;;;4984493;28;20239;-71
2023/05/01 08:56:01;;;;;;;5.30;4.90;;;18.70;61.10;;;;;;4971581;28;20573;-71
2023/05/01 08:58:30;;;;;;;7.40;4.57;;;18.80;60.90;;;;;;4969966;28;20499;-71
2023/05/01 09:01:00;;;;;;;4.93;4.53;;;18.90;61.10;;;;;;4971875;28;20220;-72
2023/05/01 09:03:28;;;;;;;5.03;4.60;;;19.00;61.80;;;;;;4972950;28;20204;-72
2023/05/01 09:05:55;;;;;;;5.10;4.60;;;19.10;61.20;;;;;;4979395;28;20197;-74
2023/05/01 09:08:22;;;;;;;4.90;4.40;;;19.20;61.30;;;;;;4972902;28;20216;-74
2023/05/01 09:10:51;;;;;;;5.83;5.33;;;19.20;60.70;;;;;;4971074;28;20205;-73
2023/05/01 09:13:19;;;;;;;5.27;4.77;;;19.10;61.10;;;;;;4972172;28;20303;-73
2023/05/01 09:16:00;;;;;;;5.67;5.07;;;19.10;61.60;;;;;;4958406;28;20204;-72
2023/05/01 09:18:27;;;;;;;6.53;5.47;;;19.10;62.20;;;;;;4977183;28;20455;-72
2023/05/01 09:20:54;;;;;;;5.60;5.10;;;19.10;62.00;;;;;;4979015;28;20475;-73
2023/05/01 09:23:21;;;;;;;4.73;4.33;;;19.10;62.30;;;;;;4969944;28;20236;-77
2023/05/01 09:25:49;;;;;;;5.47;4.70;;;19.10;62.40;;;;;;4973037;28;20200;-74
2023/05/01 09:28:16;;;;;;;5.10;4.60;;;19.20;62.30;;;;;;4973065;28;20201;-73
2023/05/01 09:31:00;;;;;;;5.93;4.77;;;19.30;62.00;;;;;;4988034;28;20203;-74
2023/05/01 09:33:27;;;;;;;5.53;5.03;;;19.30;61.40;;;;;;4979182;28;20288;-72
2023/05/01 09:35:56;;;;;;;5.00;4.60;;;19.30;61.40;;;;;;4972923;28;20247;-71
2023/05/01 09:38:24;;;;;;;5.70;5.20;;;19.30;61.60;;;;;;4982984;28;20228;-74
2023/05/01 09:41:04;;;;;;;4.97;4.57;;;19.40;61.80;;;;;;4973225;28;20226;-76
2023/05/01 09:43:31;;;;;;;5.00;4.60;;;19.40;62.20;;;;;;4981664;28;20659;-78
2023/05/01 09:46:06;;;;;;;5.10;4.60;;;19.60;61.90;;;;;;4973879;28;20210;-82
2023/05/01 09:48:33;;;;;;;5.30;4.80;;;19.70;63.00;;;;;;4979160;28;20466;-72
2023/05/01 09:51:00;;;;;;;4.83;4.43;;;19.90;62.00;;;;;;4972749;28;20197;-72
2023/05/01 09:53:40;;;;;;;6.03;5.00;;;20.00;61.40;;;;;;4979755;28;20286;-73
2023/05/01 09:56:08;;;;;;;5.70;5.20;;;19.90;61.00;;;;;;4975013;28;20723;-72
2023/05/01 09:58:35;;;;;;;4.80;4.40;;;19.70;61.80;;;;;;4977982;28;20611;-74
2023/05/01 10:01:03;;;;;;;5.30;4.80;;;19.60;62.30;;;;;;4984696;28;20307;-73
2023/05/01 10:03:30;;;;;;;5.70;4.83;;;19.50;62.70;;;;;;4974549;28;20295;-73
2023/05/01 10:06:02;;;;;;;5.00;4.50;;;19.70;63.40;;;;;;4981511;28;20209;-72
2023/05/01 10:08:45;;;;;;;6.00;5.17;;;19.80;63.00;;;;;;4974899;28;20287;-71
2023/05/01 10:11:11;;;;;;;5.47;4.97;;;19.80;62.80;;;;;;4972071;28;20196;-76
2023/05/01 10:13:38;;;;;;;4.90;4.50;;;19.70;62.70;;;;;;4974311;28;20201;-71
2023/05/01 10:16:09;;;;;;;5.20;4.80;;;19.60;63.00;;;;;;4975854;28;20255;-72
2023/05/01 10:18:36;;;;;;;5.43;4.93;;;19.70;62.90;;;;;;4970831;28;20216;-67
2023/05/01 10:21:04;;;;;;;5.47;4.90;;;19.80;62.80;;;;;;4976952;28;20235;-72
2023/05/01 10:23:32;;;;;;;5.73;5.00;;;19.90;62.00;;;;;;4969772;28;20205;-72
2023/05/01 10:26:01;;;;;;;5.93;5.43;;;19.90;62.00;;;;;;4968479;28;20200;-72
2023/05/01 10:28:28;;;;;;;5.50;5.00;;;20.00;62.30;;;;;;4970848;28;20208;-73
2023/05/01 10:30:57;;;;;;;6.03;5.43;;;20.10;62.80;;;;;;4971141;28;20197;-72
2023/05/01 10:33:26;;;;;;;5.63;5.10;;;20.20;62.30;;;;;;4973197;28;20299;-72
2023/05/01 10:35:58;;;;;;;5.43;4.93;;;20.30;61.30;;;;;;4984746;28;20468;-72
2023/05/01 10:38:33;;;;;;;5.67;5.13;;;20.40;61.30;;;;;;4976853;28;20201;-72
2023/05/01 10:41:08;;;;;;;5.80;5.00;;;20.40;60.40;;;;;;4978993;28;20330;-69
2023/05/01 10:43:34;;;;;;;5.13;4.30;;;20.40;61.20;;;;;;4968094;28;20226;-73
2023/05/01 10:46:28;;;;;;;5.90;5.27;;;20.50;61.60;;;;;;4969601;28;20641;-72
2023/05/01 10:48:57;;;;;;;5.03;4.53;;;20.60;60.00;;;;;;4978129;28;20327;-71
2023/05/01 10:51:26;;;;;;;5.40;5.00;;;20.60;60.80;;;;;;4961447;28;20212;-71
2023/05/01 10:54:25;;;;;;;5.47;4.97;;;20.70;60.20;;;;;;4969250;28;20211;-72
2023/05/01 10:56:53;;;;;;;5.43;4.93;;;20.60;59.70;;;;;;4972868;28;20208;-72
2023/05/01 10:59:20;;;;;;;5.00;4.50;;;20.70;60.30;;;;;;4975850;28;20635;-72
2023/05/01 11:01:50;;;;;;;5.43;4.93;;;20.80;60.20;;;;;;4972305;28;20280;-72
2023/05/01 11:04:54;;;;;;;5.97;5.47;;;20.90;59.60;;;;;;4970643;28;20210;-72
2023/05/01 11:07:22;;;;;;;5.37;4.87;;;20.80;59.10;;;;;;4968092;28;20203;-70
2023/05/01 11:09:54;;;;;;;5.00;4.60;;;20.80;60.00;;;;;;4970856;28;20208;-71
2023/05/01 11:12:57;;;;;;;4.77;4.30;;;20.90;60.30;;;;;;4967619;28;20295;-73
2023/05/01 11:15:32;;;;;;;4.50;4.10;;;21.00;59.80;;;;;;4965764;28;20665;-70
2023/05/01 11:18:00;;;;;;;5.10;4.60;;;20.90;59.50;;;;;;4963880;28;20204;-72
2023/05/01 11:21:02;;;;;;;5.27;4.87;;;21.00;60.40;;;;;;4970941;28;20216;-71
2023/05/01 11:23:31;;;;;;;5.00;4.60;;;21.10;58.80;;;;;;4972717;28;20196;-71
2023/05/01 11:26:04;;;;;;;5.70;5.17;;;21.10;59.00;;;;;;4971122;28;20205;-71
2023/05/01 11:28:31;;;;;;;6.43;5.83;;;21.00;58.70;;;;;;4966823;28;20297;-71
2023/05/01 11:31:00;;;;;;;5.87;5.37;;;20.90;58.60;;;;;;4974696;28;20201;-72
2023/05/01 11:33:29;;;;;;;6.50;5.37;;;20.90;58.80;;;;;;4974884;28;20607;-69
2023/05/01 11:36:00;;;;;;;5.30;4.80;;;21.00;58.80;;;;;;4978230;28;20948;-71
2023/05/01 11:38:28;;;;;;;6.63;5.20;;;21.10;58.70;;;;;;4975551;28;20232;-72
2023/05/01 11:41:10;;;;;;;5.67;5.17;;;21.30;58.70;;;;;;4973490;28;20220;-72
2023/05/01 11:43:50;;;;;;;5.33;4.77;;;21.40;57.80;;;;;;4974691;28;20541;-71
2023/05/01 11:46:24;;;;;;;5.63;5.20;;;21.50;57.70;;;;;;4988811;28;20576;-72
2023/05/01 11:48:53;;;;;;;5.37;4.77;;;21.50;57.10;;;;;;4977450;28;20211;-71
2023/05/01 11:51:20;;;;;;;4.57;4.17;;;21.50;57.50;;;;;;4988347;28;20204;-71
2023/05/01 11:54:06;;;;;;;5.37;4.87;;;21.70;58.40;;;;;;4976531;28;20212;-72
2023/05/01 11:56:35;;;;;;;6.40;5.80;;;21.60;56.80;;;;;;4989235;28;20207;-71
2023/05/01 11:59:10;;;;;;;5.80;5.30;;;21.50;57.30;;;;;;4981014;28;20294;-72
2023/05/01 12:01:39;;;;;;;6.13;5.43;;;21.60;57.20;;;;;;4972650;28;20220;-72
2023/05/01 12:04:07;;;;;;;5.70;5.20;;;21.70;57.10;;;;;;4974342;28;20223;-72
2023/05/01 12:06:42;;;;;;;5.83;5.30;;;21.60;56.10;;;;;;4975046;28;20220;-70
2023/05/01 12:09:11;;;;;;;5.23;4.83;;;21.60;57.20;;;;;;4991091;28;20215;-72
2023/05/01 12:11:39;;;;;;;6.40;5.80;;;21.70;56.70;;;;;;4976214;28;20203;-72
2023/05/01 12:14:07;;;;;;;6.93;6.33;;;21.60;56.60;;;;;;4968406;28;20207;-71
2023/05/01 12:16:34;;;;;;;6.50;6.00;;;21.60;56.70;;;;;;4982494;28;20224;-71
2023/05/01 12:19:03;;;;;;;5.40;5.00;;;21.60;57.20;;;;;;4971942;28;20212;-68
2023/05/01 12:21:30;;;;;;;6.30;5.80;;;21.70;57.90;;;;;;4980769;28;20745;-72
2023/05/01 12:24:07;;;;;;;6.00;5.50;;;21.80;58.10;;;;;;4972071;28;20212;-72
2023/05/01 12:26:36;;;;;;;5.20;4.70;;;21.80;58.10;;;;;;4973208;28;20197;-71
2023/05/01 12:29:04;;;;;;;5.40;4.20;;;21.90;58.20;;;;;;4973188;28;20208;-71
2023/05/01 12:31:32;;;;;;;6.17;5.10;;;21.90;58.20;;;;;;4983017;28;20200;-71
2023/05/01 12:34:00;;;;;;;5.73;5.13;;;21.90;57.80;;;;;;4972438;28;20407;-72
2023/05/01 12:36:29;;;;;;;5.90;5.40;;;22.00;57.90;;;;;;4973556;28;20213;-70
2023/05/01 12:38:59;;;;;;;5.77;5.00;;;22.00;58.50;;;;;;4973050;28;20208;-70
2023/05/01 12:41:36;;;;;;;5.83;5.20;;;22.00;58.80;;;;;;4971782;28;20217;-71
2023/05/01 12:44:15;;;;;;;5.60;5.10;;;21.90;58.90;;;;;;4971729;28;20209;-71
2023/05/01 12:46:42;;;;;;;6.70;5.00;;;21.90;59.00;;;;;;4973423;28;20570;-72
2023/05/01 12:49:09;;;;;;;5.53;5.03;;;21.90;59.00;;;;;;4975715;28;20218;-70
2023/05/01 12:51:36;;;;;;;5.83;5.33;;;21.90;59.10;;;;;;4981061;28;20202;-71
2023/05/01 12:54:05;;;;;;;5.60;5.10;;;21.90;59.50;;;;;;4971774;28;20204;-72
2023/05/01 12:56:32;;;;;;;5.57;5.07;;;21.90;59.60;;;;;;4980041;28;20209;-72
2023/05/01 12:59:00;;;;;;;6.90;6.20;;;21.90;59.60;;;;;;4987580;28;20726;-72